createdAt,value
2022-09-27T00:01:17.510Z,11.50
2022-09-27T00:03:45.850Z,11.60
2022-09-27T00:06:17.558Z,11.60
2022-09-27T00:08:45.801Z,11.60
2022-09-27T00:11:26.664Z,11.60
2022-09-27T00:13:56.247Z,11.50
2022-09-27T00:16:26.633Z,11.50
2022-09-27T00:18:59.226Z,11.60
2022-09-27T00:21:28.357Z,11.50
2022-09-27T00:23:56.768Z,11.50
2022-09-27T00:26:28.103Z,11.60
2022-09-27T00:28:57.062Z,11.50
2022-09-27T00:31:29.509Z,11.50
2022-09-27T00:34:01.415Z,11.40
2022-09-27T00:36:31.296Z,11.40
2022-09-27T00:39:02.095Z,11.40
2022-09-27T00:41:35.286Z,11.40
2022-09-27T00:44:06.564Z,11.40
2022-09-27T00:46:42.215Z,11.40
2022-09-27T00:49:22.203Z,11.30
2022-09-27T00:52:01.272Z,11.30
2022-09-27T00:54:36.064Z,11.30
2022-09-27T00:57:06.668Z,11.30
2022-09-27T00:59:42.469Z,11.30
2022-09-27T01:02:11.118Z,11.20
2022-09-27T01:04:41.864Z,11.20
2022-09-27T01:07:10.182Z,11.10
2022-09-27T01:09:39.162Z,11.20
2022-09-27T01:12:24.064Z,11.20
2022-09-27T01:15:13.819Z,11.30
2022-09-27T01:18:01.846Z,11.40
2022-09-27T01:21:23.109Z,11.40
2022-09-27T01:24:17.967Z,11.30
2022-09-27T01:27:19.849Z,11.40
2022-09-27T01:30:19.542Z,11.40
2022-09-27T01:33:15.734Z,11.40
2022-09-27T01:36:06.339Z,11.50
2022-09-27T01:38:48.910Z,11.50
2022-09-27T01:41:33.067Z,11.40
2022-09-27T01:44:40.383Z,11.40
2022-09-27T01:47:20.821Z,11.50
2022-09-27T01:50:04.491Z,11.50
2022-09-27T01:52:43.928Z,11.40
2022-09-27T01:55:16.827Z,11.40
2022-09-27T01:58:14.112Z,11.40
2022-09-27T02:00:50.267Z,11.40
2022-09-27T02:03:26.865Z,11.40
2022-09-27T02:06:19.956Z,11.50
2022-09-27T02:09:07.093Z,11.30
2022-09-27T02:12:09.586Z,11.30
2022-09-27T02:14:45.458Z,11.30
2022-09-27T02:17:30.788Z,11.40
2022-09-27T02:20:15.156Z,11.50
2022-09-27T02:23:02.845Z,11.50
2022-09-27T02:25:43.817Z,11.40
2022-09-27T02:28:26.912Z,11.50
2022-09-27T02:30:56.019Z,11.50
2022-09-27T02:33:35.015Z,11.50
2022-09-27T02:36:05.140Z,11.40
2022-09-27T02:38:34.208Z,11.40
2022-09-27T02:41:03.702Z,11.40
2022-09-27T02:43:34.419Z,11.40
2022-09-27T02:46:31.617Z,11.40
2022-09-27T02:49:17.018Z,11.40
2022-09-27T02:52:13.775Z,11.40
2022-09-27T02:54:53.342Z,11.30
2022-09-27T02:58:09.236Z,11.30
2022-09-27T03:01:06.003Z,11.30
2022-09-27T03:04:13.605Z,11.30
2022-09-27T03:06:47.193Z,11.20
2022-09-27T03:09:21.922Z,11.10
2022-09-27T03:11:50.513Z,11.20
2022-09-27T03:14:19.620Z,11.20
2022-09-27T03:17:05.734Z,11.20
2022-09-27T03:19:54.315Z,11.20
2022-09-27T03:22:48.320Z,11.10
2022-09-27T03:25:18.063Z,11.20
2022-09-27T03:27:46.619Z,11.20
2022-09-27T03:30:16.066Z,11.20
2022-09-27T03:32:45.593Z,11.20
2022-09-27T03:35:32.597Z,11.20
2022-09-27T03:38:01.023Z,11.30
2022-09-27T03:40:30.861Z,11.40
2022-09-27T03:42:59.857Z,11.40
2022-09-27T03:45:29.143Z,11.30
2022-09-27T03:47:59.535Z,11.40
2022-09-27T03:50:28.003Z,11.30
2022-09-27T03:52:56.327Z,11.40
2022-09-27T03:55:26.086Z,11.40
2022-09-27T03:57:55.687Z,11.40
2022-09-27T04:00:26.056Z,11.40
2022-09-27T04:02:54.776Z,11.40
2022-09-27T04:05:43.079Z,11.50
2022-09-27T04:08:16.743Z,11.40
2022-09-27T04:10:45.779Z,11.40
2022-09-27T04:13:15.695Z,11.40
2022-09-27T04:15:52.644Z,11.50
2022-09-27T04:18:44.105Z,11.60
2022-09-27T04:21:38.290Z,11.60
2022-09-27T04:24:08.984Z,11.50
2022-09-27T04:26:37.415Z,11.50
2022-09-27T04:29:13.480Z,11.50
2022-09-27T04:31:49.470Z,11.40
2022-09-27T04:34:45.522Z,11.40
2022-09-27T04:37:13.922Z,11.30
2022-09-27T04:39:46.310Z,11.30
2022-09-27T04:42:15.041Z,11.30
2022-09-27T04:44:45.165Z,11.30
2022-09-27T04:47:13.964Z,11.30
2022-09-27T04:49:43.367Z,11.30
2022-09-27T04:52:11.627Z,11.20
2022-09-27T04:54:40.343Z,11.20
2022-09-27T04:57:14.476Z,11.20
2022-09-27T04:59:44.379Z,11.20
2022-09-27T05:02:14.327Z,11.20
2022-09-27T05:05:18.213Z,11.30
2022-09-27T05:07:47.208Z,11.30
2022-09-27T05:10:27.720Z,11.30
2022-09-27T05:12:56.435Z,11.40
2022-09-27T05:15:26.151Z,11.40
2022-09-27T05:18:14.492Z,11.40
2022-09-27T05:21:03.048Z,11.40
2022-09-27T05:23:38.236Z,11.40
2022-09-27T05:26:07.723Z,11.40
2022-09-27T05:28:36.133Z,11.50
2022-09-27T05:31:06.436Z,11.40
2022-09-27T05:33:34.920Z,11.50
2022-09-27T05:36:26.349Z,11.50
2022-09-27T05:38:54.625Z,11.40
2022-09-27T05:41:24.686Z,11.40
2022-09-27T05:43:53.610Z,11.40
2022-09-27T05:46:23.517Z,11.40
2022-09-27T05:48:52.190Z,11.40
2022-09-27T05:51:21.064Z,11.40
2022-09-27T05:53:49.893Z,11.30
2022-09-27T05:56:28.625Z,11.40
2022-09-27T05:59:12.834Z,11.40
2022-09-27T06:02:05.926Z,11.40
2022-09-27T06:04:57.145Z,11.60
2022-09-27T06:07:44.394Z,11.70
2022-09-27T06:10:20.837Z,11.90
2022-09-27T06:12:50.267Z,12.00
2022-09-27T06:15:35.070Z,12.00
2022-09-27T06:18:07.901Z,12.00
2022-09-27T06:20:38.723Z,12.10
2022-09-27T06:23:09.847Z,12.20
2022-09-27T06:25:40.588Z,12.20
2022-09-27T06:28:15.569Z,12.20
2022-09-27T06:30:48.920Z,12.20
2022-09-27T06:33:28.966Z,12.20
2022-09-27T06:36:02.817Z,12.10
2022-09-27T06:38:32.787Z,12.10
2022-09-27T06:41:17.306Z,12.10
2022-09-27T06:44:04.563Z,12.00
2022-09-27T06:46:51.691Z,12.00
2022-09-27T06:49:31.566Z,12.00
2022-09-27T06:51:59.949Z,11.90
2022-09-27T06:54:28.815Z,11.90
2022-09-27T06:57:00.278Z,11.70
2022-09-27T06:59:48.798Z,11.70
2022-09-27T07:02:35.728Z,11.50
2022-09-27T07:05:32.562Z,11.30
2022-09-27T07:08:13.534Z,11.20
2022-09-27T07:10:42.895Z,11.10
2022-09-27T07:13:12.605Z,11.10
2022-09-27T07:15:42.886Z,11.10
2022-09-27T07:18:15.693Z,11.20
2022-09-27T07:20:45.329Z,11.30
2022-09-27T07:23:15.511Z,11.40
2022-09-27T07:25:44.374Z,11.40
2022-09-27T07:28:21.082Z,11.50
2022-09-27T07:30:56.022Z,11.50
2022-09-27T07:33:25.846Z,11.50
2022-09-27T07:35:55.481Z,11.60
2022-09-27T07:38:24.430Z,11.60
2022-09-27T07:40:53.081Z,11.60
2022-09-27T07:43:22.217Z,11.50
2022-09-27T07:45:50.731Z,11.60
2022-09-27T07:48:39.562Z,11.60
2022-09-27T07:51:27.646Z,11.70
2022-09-27T07:54:08.905Z,11.70
2022-09-27T07:56:49.652Z,11.90
2022-09-27T07:59:21.087Z,11.90
2022-09-27T08:01:50.232Z,11.90
2022-09-27T08:04:19.278Z,11.90
2022-09-27T08:06:49.755Z,11.90
2022-09-27T08:09:19.391Z,12.00
2022-09-27T08:11:48.599Z,12.10
2022-09-27T08:14:17.923Z,12.10
2022-09-27T08:16:49.311Z,12.10
2022-09-27T08:19:30.091Z,12.30
2022-09-27T08:22:21.230Z,12.90
2022-09-27T08:24:58.084Z,12.60
2022-09-27T08:27:42.014Z,12.70
2022-09-27T08:30:25.153Z,12.90
2022-09-27T08:32:57.063Z,13.00
2022-09-27T08:35:29.121Z,13.10
2022-09-27T08:38:01.616Z,13.20
2022-09-27T08:40:51.482Z,13.30
2022-09-27T08:43:36.599Z,13.40
2022-09-27T08:46:26.253Z,13.60
2022-09-27T08:49:11.145Z,13.90
2022-09-27T08:51:42.908Z,14.10
2022-09-27T08:54:22.652Z,14.40
2022-09-27T08:56:51.395Z,14.60
2022-09-27T08:59:25.936Z,14.70
2022-09-27T09:01:56.343Z,14.70
2022-09-27T09:04:40.275Z,14.80
2022-09-27T09:07:32.343Z,14.60
2022-09-27T09:10:42.913Z,14.40
2022-09-27T09:13:29.201Z,14.00
2022-09-27T09:16:16.762Z,13.60
2022-09-27T09:19:15.874Z,13.40
2022-09-27T09:22:17.232Z,13.20
2022-09-27T09:25:06.359Z,13.20
2022-09-27T09:27:46.453Z,13.20
2022-09-27T09:30:25.302Z,13.10
2022-09-27T09:33:19.321Z,13.00
2022-09-27T09:35:58.798Z,13.00
2022-09-27T09:38:39.791Z,13.20
2022-09-27T09:41:22.063Z,13.40
2022-09-27T09:43:58.015Z,13.50
2022-09-27T09:46:37.062Z,13.50
2022-09-27T09:49:22.885Z,13.60
2022-09-27T09:51:58.323Z,13.70
2022-09-27T09:54:33.432Z,13.80
2022-09-27T09:57:13.549Z,13.90
2022-09-27T09:59:48.286Z,14.00
2022-09-27T10:02:31.174Z,14.20
2022-09-27T10:05:08.207Z,14.40
2022-09-27T10:07:40.553Z,14.70
2022-09-27T10:10:15.491Z,14.90
2022-09-27T10:13:16.191Z,15.10
2022-09-27T10:16:00.380Z,15.50
2022-09-27T10:18:30.324Z,15.90
2022-09-27T10:21:07.675Z,16.40
2022-09-27T10:23:37.401Z,16.60
2022-09-27T10:26:19.881Z,16.50
2022-09-27T10:28:52.211Z,16.30
2022-09-27T10:31:38.717Z,16.20
2022-09-27T10:34:32.598Z,16.10
2022-09-27T10:37:19.103Z,16.60
2022-09-27T10:40:31.908Z,17.10
2022-09-27T10:43:01.493Z,17.50
2022-09-27T10:45:51.210Z,17.80
2022-09-27T10:48:23.592Z,17.80
2022-09-27T10:51:00.957Z,17.80
2022-09-27T10:53:49.319Z,17.60
2022-09-27T10:56:30.522Z,17.30
2022-09-27T10:59:01.410Z,16.80
2022-09-27T11:01:45.346Z,16.50
2022-09-27T11:04:38.309Z,16.20
2022-09-27T11:07:20.029Z,16.00
2022-09-27T11:10:02.953Z,15.60
2022-09-27T11:12:35.455Z,15.20
2022-09-27T11:15:17.615Z,14.90
2022-09-27T11:18:06.687Z,14.70
2022-09-27T11:20:48.884Z,14.60
2022-09-27T11:23:44.417Z,14.60
2022-09-27T11:26:37.566Z,14.50
2022-09-27T11:29:24.397Z,14.50
2022-09-27T11:32:30.919Z,14.60
2022-09-27T11:35:34.136Z,14.60
2022-09-27T11:38:40.862Z,14.60
2022-09-27T11:41:30.260Z,14.60
2022-09-27T11:44:43.051Z,14.60
2022-09-27T11:47:24.512Z,14.70
2022-09-27T11:50:21.550Z,14.90
2022-09-27T11:53:16.483Z,14.80
2022-09-27T11:56:04.321Z,14.80
2022-09-27T11:58:48.271Z,14.90
2022-09-27T12:01:35.355Z,15.10
2022-09-27T12:04:42.508Z,15.00
2022-09-27T12:07:24.406Z,14.90
2022-09-27T12:09:59.261Z,15.00
2022-09-27T12:12:33.610Z,15.10
2022-09-27T12:15:07.325Z,15.30
2022-09-27T12:17:44.084Z,15.40
2022-09-27T12:20:22.576Z,15.60
2022-09-27T12:23:00.637Z,15.80
2022-09-27T12:25:57.088Z,15.70
2022-09-27T12:28:40.866Z,15.50
2022-09-27T12:31:30.587Z,15.40
2022-09-27T12:34:18.874Z,15.20
2022-09-27T12:37:03.703Z,15.10
2022-09-27T12:39:47.927Z,15.00
2022-09-27T12:42:34.306Z,15.00
2022-09-27T12:45:12.892Z,14.90
2022-09-27T12:48:07.927Z,14.90
2022-09-27T12:50:43.747Z,14.70
2022-09-27T12:53:22.789Z,14.70
2022-09-27T12:56:18.464Z,14.70
2022-09-27T12:59:17.535Z,14.70
2022-09-27T13:02:30.907Z,14.80
2022-09-27T13:05:29.293Z,14.90
2022-09-27T13:08:22.411Z,15.00
2022-09-27T13:11:07.459Z,15.00
2022-09-27T13:13:39.747Z,15.10
2022-09-27T13:16:10.956Z,15.00
2022-09-27T13:19:01.292Z,15.10
2022-09-27T13:21:58.243Z,15.20
2022-09-27T13:24:50.982Z,15.30
2022-09-27T13:27:48.211Z,15.40
2022-09-27T13:30:47.779Z,15.10
2022-09-27T13:33:43.177Z,14.60
2022-09-27T13:36:30.395Z,14.10
2022-09-27T13:39:22.650Z,13.80
2022-09-27T13:42:37.298Z,13.60
2022-09-27T13:45:24.086Z,13.60
2022-09-27T13:47:56.847Z,13.60
2022-09-27T13:50:47.981Z,13.50
2022-09-27T13:53:30.112Z,13.50
2022-09-27T13:55:59.629Z,13.60
2022-09-27T13:58:52.347Z,13.80
2022-09-27T14:01:53.164Z,13.80
2022-09-27T14:04:35.259Z,13.60
2022-09-27T14:07:05.620Z,13.40
2022-09-27T14:09:41.230Z,13.30
2022-09-27T14:12:22.413Z,13.20
2022-09-27T14:14:53.981Z,13.10
2022-09-27T14:17:26.110Z,13.10
2022-09-27T14:19:55.968Z,13.10
2022-09-27T14:22:26.063Z,13.10
2022-09-27T14:25:00.351Z,13.10
2022-09-27T14:27:38.177Z,13.20
2022-09-27T14:30:22.310Z,13.30
2022-09-27T14:33:04.000Z,13.20
2022-09-27T14:36:08.668Z,13.20
2022-09-27T14:38:41.757Z,13.00
2022-09-27T14:41:19.330Z,13.00
2022-09-27T14:43:50.468Z,12.90
2022-09-27T14:46:29.043Z,12.90
2022-09-27T14:48:59.663Z,12.80
2022-09-27T14:51:31.436Z,12.80
2022-09-27T14:54:05.393Z,12.80
2022-09-27T14:56:38.120Z,12.80
2022-09-27T14:59:16.470Z,13.00
2022-09-27T15:01:51.249Z,13.00
2022-09-27T15:04:24.416Z,12.90
2022-09-27T15:06:53.349Z,13.00
2022-09-27T15:09:22.934Z,12.90
2022-09-27T15:11:56.922Z,12.90
2022-09-27T15:14:28.104Z,12.90
2022-09-27T15:17:00.723Z,12.90
2022-09-27T15:19:31.002Z,12.70
2022-09-27T15:22:34.442Z,12.70
2022-09-27T15:25:19.703Z,12.70
2022-09-27T15:27:54.701Z,12.70
2022-09-27T15:30:30.257Z,12.60
2022-09-27T15:32:59.391Z,12.50
2022-09-27T15:35:33.310Z,12.50
2022-09-27T15:38:27.999Z,12.40
2022-09-27T15:41:12.791Z,12.40
2022-09-27T15:43:46.359Z,12.50
2022-09-27T15:46:37.231Z,12.50
2022-09-27T15:49:30.181Z,12.40
2022-09-27T15:52:00.780Z,12.30
2022-09-27T15:54:34.738Z,12.20
2022-09-27T15:57:06.488Z,12.20
2022-09-27T15:59:36.937Z,12.10
2022-09-27T16:02:19.446Z,12.00
2022-09-27T16:04:48.081Z,12.00
2022-09-27T16:07:16.673Z,11.90
2022-09-27T16:09:46.805Z,11.80
2022-09-27T16:12:15.052Z,11.80
2022-09-27T16:14:43.411Z,11.70
2022-09-27T16:17:12.851Z,11.70
2022-09-27T16:19:41.338Z,11.80
2022-09-27T16:22:09.597Z,11.80
2022-09-27T16:24:37.906Z,11.80
2022-09-27T16:27:07.974Z,11.70
2022-09-27T16:29:36.484Z,11.60
2022-09-27T16:32:06.873Z,11.50
2022-09-27T16:34:35.213Z,11.50
2022-09-27T16:37:05.118Z,11.40
2022-09-27T16:39:33.523Z,11.50
2022-09-27T16:42:04.911Z,11.30
2022-09-27T16:44:35.975Z,11.20
2022-09-27T16:47:04.998Z,11.20
2022-09-27T16:49:50.796Z,11.10
2022-09-27T16:52:19.543Z,11.10
2022-09-27T16:54:48.152Z,11.10
2022-09-27T16:57:16.428Z,11.10
2022-09-27T16:59:47.045Z,11.10
2022-09-27T17:02:15.431Z,11.10
2022-09-27T17:04:44.236Z,11.20
2022-09-27T17:07:13.538Z,11.20
2022-09-27T17:09:41.782Z,11.10
2022-09-27T17:12:11.996Z,11.10
2022-09-27T17:14:41.369Z,11.10
2022-09-27T17:17:11.075Z,11.00
2022-09-27T17:19:39.386Z,10.90
2022-09-27T17:22:08.874Z,10.80
2022-09-27T17:24:37.163Z,10.70
2022-09-27T17:27:05.412Z,10.70
2022-09-27T17:29:34.191Z,10.60
2022-09-27T17:32:02.562Z,10.60
2022-09-27T17:34:32.390Z,10.60
2022-09-27T17:37:00.731Z,10.60
2022-09-27T17:39:29.374Z,10.50
2022-09-27T17:41:58.401Z,10.60
2022-09-27T17:44:27.779Z,10.50
2022-09-27T17:47:10.470Z,10.50
2022-09-27T17:49:58.628Z,10.50
2022-09-27T17:52:29.948Z,10.50
2022-09-27T17:54:58.772Z,10.50
2022-09-27T17:57:27.572Z,10.40
2022-09-27T17:59:57.147Z,10.40
2022-09-27T18:02:25.951Z,10.30
2022-09-27T18:04:55.851Z,10.30
2022-09-27T18:07:24.945Z,10.10
2022-09-27T18:09:53.230Z,10.00
2022-09-27T18:12:21.700Z,10.00
2022-09-27T18:14:50.113Z,9.90
2022-09-27T18:17:18.890Z,9.80
2022-09-27T18:19:47.118Z,9.80
2022-09-27T18:22:16.720Z,9.80
2022-09-27T18:24:45.278Z,9.80
2022-09-27T18:27:16.053Z,9.80
2022-09-27T18:29:44.326Z,9.90
2022-09-27T18:32:12.549Z,9.90
2022-09-27T18:34:40.962Z,9.90
2022-09-27T18:37:09.702Z,9.90
2022-09-27T18:39:40.155Z,9.90
2022-09-27T18:42:09.203Z,9.90
2022-09-27T18:44:37.545Z,9.90
2022-09-27T18:47:05.860Z,11.00
2022-09-27T18:49:34.531Z,9.70
2022-09-27T18:52:03.398Z,9.70
2022-09-27T18:54:31.950Z,9.60
2022-09-27T18:57:02.109Z,9.50
2022-09-27T18:59:30.597Z,9.40
2022-09-27T19:01:58.847Z,9.30
2022-09-27T19:04:27.209Z,9.30
2022-09-27T19:06:58.181Z,9.30
2022-09-27T19:09:27.167Z,9.30
2022-09-27T19:11:55.696Z,9.30
2022-09-27T19:14:25.388Z,9.20
2022-09-27T19:16:53.658Z,9.20
2022-09-27T19:19:22.101Z,9.20
2022-09-27T19:21:50.645Z,9.20
2022-09-27T19:24:19.566Z,9.20
2022-09-27T19:26:48.032Z,9.30
2022-09-27T19:29:16.708Z,9.30
2022-09-27T19:31:46.778Z,9.40
2022-09-27T19:34:15.358Z,9.40
2022-09-27T19:36:43.657Z,9.50
2022-09-27T19:39:11.993Z,9.50
2022-09-27T19:41:40.587Z,9.50
2022-09-27T19:44:09.458Z,9.60
2022-09-27T19:46:38.909Z,9.50
2022-09-27T19:49:08.529Z,9.60
2022-09-27T19:51:37.311Z,9.60
2022-09-27T19:54:06.030Z,9.60
2022-09-27T19:56:34.879Z,9.60
2022-09-27T19:59:07.004Z,9.60
2022-09-27T20:01:36.512Z,9.70
2022-09-27T20:04:05.122Z,9.60
2022-09-27T20:06:34.697Z,9.70
2022-09-27T20:09:03.861Z,9.80
2022-09-27T20:11:33.138Z,9.70
2022-09-27T20:14:01.801Z,9.70
2022-09-27T20:16:30.149Z,9.70
2022-09-27T20:19:00.532Z,9.80
2022-09-27T20:21:32.599Z,9.80
2022-09-27T20:24:06.184Z,9.80
2022-09-27T20:26:36.447Z,9.80
2022-09-27T20:29:07.561Z,9.80
2022-09-27T20:31:51.722Z,9.80
2022-09-27T20:34:29.327Z,9.80
2022-09-27T20:36:57.582Z,9.70
2022-09-27T20:39:27.582Z,9.70
2022-09-27T20:41:55.785Z,9.70
2022-09-27T20:44:24.688Z,9.70
2022-09-27T20:46:53.873Z,9.70
2022-09-27T20:49:22.309Z,9.70
2022-09-27T20:51:51.147Z,9.70
2022-09-27T20:54:19.904Z,9.70
2022-09-27T20:56:50.994Z,9.70
2022-09-27T20:59:24.175Z,9.70
2022-09-27T21:01:53.571Z,9.70
2022-09-27T21:04:23.453Z,9.70
2022-09-27T21:06:52.787Z,9.70
2022-09-27T21:09:21.083Z,9.70
2022-09-27T21:11:51.648Z,9.70
2022-09-27T21:14:20.329Z,9.70
2022-09-27T21:16:49.126Z,9.80
2022-09-27T21:19:17.908Z,9.80
2022-09-27T21:21:46.373Z,9.80
2022-09-27T21:24:15.333Z,9.80
2022-09-27T21:26:43.755Z,9.70
2022-09-27T21:29:15.177Z,9.70
2022-09-27T21:31:43.660Z,9.70
2022-09-27T21:34:12.018Z,9.70
2022-09-27T21:36:40.592Z,9.60
2022-09-27T21:39:10.609Z,9.60
2022-09-27T21:41:39.745Z,9.60
2022-09-27T21:44:10.853Z,9.70
2022-09-27T21:46:43.861Z,9.70
2022-09-27T21:49:12.247Z,9.70
2022-09-27T21:51:42.157Z,9.70
2022-09-27T21:54:14.355Z,9.70
2022-09-27T21:56:45.036Z,9.70
2022-09-27T21:59:16.010Z,9.70
2022-09-27T22:01:47.321Z,9.70
2022-09-27T22:04:15.830Z,9.70
2022-09-27T22:06:47.511Z,9.70
2022-09-27T22:09:18.649Z,9.70
2022-09-27T22:11:47.961Z,9.70
2022-09-27T22:14:19.450Z,9.70
2022-09-27T22:16:49.530Z,9.70
2022-09-27T22:19:18.024Z,9.70
2022-09-27T22:21:47.172Z,9.60
2022-09-27T22:24:17.686Z,9.60
2022-09-27T22:26:49.648Z,9.60
2022-09-27T22:29:18.421Z,9.60
2022-09-27T22:31:48.684Z,9.60
2022-09-27T22:34:28.630Z,9.60
2022-09-27T22:36:58.936Z,9.60
2022-09-27T22:39:27.471Z,9.60
2022-09-27T22:41:55.839Z,9.60
2022-09-27T22:44:24.178Z,9.60
2022-09-27T22:46:53.779Z,9.60
2022-09-27T22:49:22.789Z,9.60
2022-09-27T22:51:51.344Z,9.60
2022-09-27T22:54:19.962Z,9.60
2022-09-27T22:56:56.929Z,9.70
2022-09-27T22:59:26.227Z,9.70
2022-09-27T23:01:56.770Z,9.70
2022-09-27T23:04:25.148Z,9.70
2022-09-27T23:06:53.393Z,9.70
2022-09-27T23:09:21.783Z,9.70
2022-09-27T23:11:50.022Z,9.60
2022-09-27T23:14:21.437Z,9.60
2022-09-27T23:16:50.259Z,9.50
2022-09-27T23:19:22.287Z,9.50
2022-09-27T23:21:50.538Z,9.50
2022-09-27T23:24:20.024Z,9.50
2022-09-27T23:27:08.914Z,9.40
2022-09-27T23:29:37.168Z,9.40
2022-09-27T23:32:07.635Z,9.40
2022-09-27T23:34:37.234Z,9.40
2022-09-27T23:37:05.923Z,9.40
2022-09-27T23:39:34.401Z,9.40
2022-09-27T23:42:03.222Z,9.50
2022-09-27T23:44:31.463Z,9.50
2022-09-27T23:47:02.323Z,9.70
2022-09-27T23:49:31.037Z,9.80
2022-09-27T23:52:01.297Z,9.80
2022-09-27T23:54:30.586Z,9.70
2022-09-27T23:56:59.019Z,9.70
2022-09-27T23:59:27.777Z,9.70
